sensor_id;sensor_type;location;lat;lon;timestamp;temperature;humidity
85378;DHT22;75782;48.632;10.230;2024-01-30T00:00:14;1.50;65.80
85378;DHT22;75782;48.632;10.230;2024-01-30T00:02:40;1.50;65.70
85378;DHT22;75782;48.632;10.230;2024-01-30T00:05:07;1.50;65.80
85378;DHT22;75782;48.632;10.230;2024-01-30T00:07:34;1.50;65.90
85378;DHT22;75782;48.632;10.230;2024-01-30T00:10:01;1.40;65.80
85378;DHT22;75782;48.632;10.230;2024-01-30T00:12:28;1.50;65.90
85378;DHT22;75782;48.632;10.230;2024-01-30T00:14:54;1.50;65.80
85378;DHT22;75782;48.632;10.230;2024-01-30T00:17:21;1.40;65.60
85378;DHT22;75782;48.632;10.230;2024-01-30T00:19:47;1.40;65.30
85378;DHT22;75782;48.632;10.230;2024-01-30T00:22:14;1.40;65.30
85378;DHT22;75782;48.632;10.230;2024-01-30T00:24:41;1.30;65.10
85378;DHT22;75782;48.632;10.230;2024-01-30T00:27:07;1.30;65.20
85378;DHT22;75782;48.632;10.230;2024-01-30T00:29:34;1.30;65.20
85378;DHT22;75782;48.632;10.230;2024-01-30T00:32:01;1.30;65.40
85378;DHT22;75782;48.632;10.230;2024-01-30T00:34:29;1.30;65.50
85378;DHT22;75782;48.632;10.230;2024-01-30T00:36:55;1.20;65.40
85378;DHT22;75782;48.632;10.230;2024-01-30T00:39:22;1.20;65.60
85378;DHT22;75782;48.632;10.230;2024-01-30T00:41:48;1.30;65.40
85378;DHT22;75782;48.632;10.230;2024-01-30T00:44:16;1.20;65.30
85378;DHT22;75782;48.632;10.230;2024-01-30T00:46:42;1.20;65.30
85378;DHT22;75782;48.632;10.230;2024-01-30T00:49:10;1.20;65.40
85378;DHT22;75782;48.632;10.230;2024-01-30T00:51:36;1.20;65.30
85378;DHT22;75782;48.632;10.230;2024-01-30T00:54:03;1.20;65.30
85378;DHT22;75782;48.632;10.230;2024-01-30T00:56:30;1.10;65.20
85378;DHT22;75782;48.632;10.230;2024-01-30T00:58:56;1.10;65.00
85378;DHT22;75782;48.632;10.230;2024-01-30T01:01:24;1.10;65.30
85378;DHT22;75782;48.632;10.230;2024-01-30T01:03:51;1.10;65.30
85378;DHT22;75782;48.632;10.230;2024-01-30T01:06:18;1.10;65.40
85378;DHT22;75782;48.632;10.230;2024-01-30T01:08:45;1.10;65.40
85378;DHT22;75782;48.632;10.230;2024-01-30T01:11:11;1.10;65.40
85378;DHT22;75782;48.632;10.230;2024-01-30T01:13:38;1.00;65.30
85378;DHT22;75782;48.632;10.230;2024-01-30T01:16:05;1.10;65.30
85378;DHT22;75782;48.632;10.230;2024-01-30T01:18:31;1.00;65.00
85378;DHT22;75782;48.632;10.230;2024-01-30T01:20:59;1.00;65.10
85378;DHT22;75782;48.632;10.230;2024-01-30T01:23:25;1.00;65.10
85378;DHT22;75782;48.632;10.230;2024-01-30T01:25:51;1.00;65.00
85378;DHT22;75782;48.632;10.230;2024-01-30T01:28:18;1.00;64.90
85378;DHT22;75782;48.632;10.230;2024-01-30T01:30:44;1.00;65.10
85378;DHT22;75782;48.632;10.230;2024-01-30T01:33:11;1.00;65.00
85378;DHT22;75782;48.632;10.230;2024-01-30T01:35:38;1.00;64.90
85378;DHT22;75782;48.632;10.230;2024-01-30T01:38:04;1.00;65.20
85378;DHT22;75782;48.632;10.230;2024-01-30T01:40:31;0.90;65.20
85378;DHT22;75782;48.632;10.230;2024-01-30T01:42:57;0.90;65.30
85378;DHT22;75782;48.632;10.230;2024-01-30T01:45:24;0.90;65.40
85378;DHT22;75782;48.632;10.230;2024-01-30T01:47:51;0.90;66.20
85378;DHT22;75782;48.632;10.230;2024-01-30T01:50:18;0.90;65.50
85378;DHT22;75782;48.632;10.230;2024-01-30T01:52:46;0.90;65.60
85378;DHT22;75782;48.632;10.230;2024-01-30T01:55:11;0.80;65.60
85378;DHT22;75782;48.632;10.230;2024-01-30T01:57:38;0.80;65.70
85378;DHT22;75782;48.632;10.230;2024-01-30T02:00:06;0.90;65.30
85378;DHT22;75782;48.632;10.230;2024-01-30T02:02:34;0.80;65.70
85378;DHT22;75782;48.632;10.230;2024-01-30T02:05:01;0.90;65.50
85378;DHT22;75782;48.632;10.230;2024-01-30T02:07:28;0.80;65.30
85378;DHT22;75782;48.632;10.230;2024-01-30T02:09:55;0.90;65.40
85378;DHT22;75782;48.632;10.230;2024-01-30T02:12:21;0.90;65.40
85378;DHT22;75782;48.632;10.230;2024-01-30T02:14:48;0.90;65.50
85378;DHT22;75782;48.632;10.230;2024-01-30T02:17:15;0.90;65.40
85378;DHT22;75782;48.632;10.230;2024-01-30T02:19:42;0.80;65.40
85378;DHT22;75782;48.632;10.230;2024-01-30T02:22:08;0.90;65.60
85378;DHT22;75782;48.632;10.230;2024-01-30T02:24:35;0.80;65.70
85378;DHT22;75782;48.632;10.230;2024-01-30T02:27:01;0.80;65.70
85378;DHT22;75782;48.632;10.230;2024-01-30T02:29:28;0.80;65.70
85378;DHT22;75782;48.632;10.230;2024-01-30T02:31:55;0.80;65.70
85378;DHT22;75782;48.632;10.230;2024-01-30T02:34:21;0.80;65.70
85378;DHT22;75782;48.632;10.230;2024-01-30T02:36:48;0.80;65.50
85378;DHT22;75782;48.632;10.230;2024-01-30T02:39:14;0.80;65.70
85378;DHT22;75782;48.632;10.230;2024-01-30T02:41:41;0.80;65.90
85378;DHT22;75782;48.632;10.230;2024-01-30T02:44:08;0.80;66.10
85378;DHT22;75782;48.632;10.230;2024-01-30T02:46:35;0.80;66.10
85378;DHT22;75782;48.632;10.230;2024-01-30T02:49:02;0.80;66.20
85378;DHT22;75782;48.632;10.230;2024-01-30T02:51:28;0.80;66.20
85378;DHT22;75782;48.632;10.230;2024-01-30T02:53:55;0.80;66.30
85378;DHT22;75782;48.632;10.230;2024-01-30T02:56:21;0.80;66.30
85378;DHT22;75782;48.632;10.230;2024-01-30T02:58:48;0.90;66.50
85378;DHT22;75782;48.632;10.230;2024-01-30T03:01:15;0.90;66.20
85378;DHT22;75782;48.632;10.230;2024-01-30T03:03:41;0.90;66.20
85378;DHT22;75782;48.632;10.230;2024-01-30T03:06:08;0.90;66.10
85378;DHT22;75782;48.632;10.230;2024-01-30T03:08:34;0.80;66.10
85378;DHT22;75782;48.632;10.230;2024-01-30T03:11:01;0.90;66.10
85378;DHT22;75782;48.632;10.230;2024-01-30T03:13:28;0.90;66.00
85378;DHT22;75782;48.632;10.230;2024-01-30T03:15:54;0.90;65.70
85378;DHT22;75782;48.632;10.230;2024-01-30T03:18:21;0.90;66.00
85378;DHT22;75782;48.632;10.230;2024-01-30T03:20:47;0.90;66.00
85378;DHT22;75782;48.632;10.230;2024-01-30T03:23:15;0.90;66.20
85378;DHT22;75782;48.632;10.230;2024-01-30T03:25:41;0.90;66.20
85378;DHT22;75782;48.632;10.230;2024-01-30T03:28:08;0.90;66.30
85378;DHT22;75782;48.632;10.230;2024-01-30T03:30:35;0.90;66.30
85378;DHT22;75782;48.632;10.230;2024-01-30T03:33:01;0.80;66.30
85378;DHT22;75782;48.632;10.230;2024-01-30T03:35:28;0.80;66.10
85378;DHT22;75782;48.632;10.230;2024-01-30T03:37:55;0.90;65.90
85378;DHT22;75782;48.632;10.230;2024-01-30T03:40:22;0.80;65.80
85378;DHT22;75782;48.632;10.230;2024-01-30T03:42:48;0.80;65.80
85378;DHT22;75782;48.632;10.230;2024-01-30T03:45:15;0.80;65.70
85378;DHT22;75782;48.632;10.230;2024-01-30T03:47:43;0.80;65.60
85378;DHT22;75782;48.632;10.230;2024-01-30T03:50:08;0.80;65.60
85378;DHT22;75782;48.632;10.230;2024-01-30T03:52:35;0.80;65.40
85378;DHT22;75782;48.632;10.230;2024-01-30T03:55:02;0.80;65.30
85378;DHT22;75782;48.632;10.230;2024-01-30T03:57:29;0.80;65.80
85378;DHT22;75782;48.632;10.230;2024-01-30T03:59:56;0.70;65.70
85378;DHT22;75782;48.632;10.230;2024-01-30T04:02:22;0.70;66.00
85378;DHT22;75782;48.632;10.230;2024-01-30T04:04:49;0.80;65.90
85378;DHT22;75782;48.632;10.230;2024-01-30T04:07:15;0.70;65.60
85378;DHT22;75782;48.632;10.230;2024-01-30T04:09:42;0.70;65.50
85378;DHT22;75782;48.632;10.230;2024-01-30T04:12:09;0.70;65.30
85378;DHT22;75782;48.632;10.230;2024-01-30T04:14:37;0.70;65.30
85378;DHT22;75782;48.632;10.230;2024-01-30T04:17:02;0.60;65.10
85378;DHT22;75782;48.632;10.230;2024-01-30T04:19:29;0.70;65.00
85378;DHT22;75782;48.632;10.230;2024-01-30T04:21:55;0.60;64.90
85378;DHT22;75782;48.632;10.230;2024-01-30T04:24:22;0.60;64.70
85378;DHT22;75782;48.632;10.230;2024-01-30T04:26:48;0.60;64.60
85378;DHT22;75782;48.632;10.230;2024-01-30T04:29:15;0.50;64.70
85378;DHT22;75782;48.632;10.230;2024-01-30T04:31:42;0.50;64.70
85378;DHT22;75782;48.632;10.230;2024-01-30T04:34:09;0.50;65.30
85378;DHT22;75782;48.632;10.230;2024-01-30T04:36:36;0.50;64.60
85378;DHT22;75782;48.632;10.230;2024-01-30T04:39:03;0.40;64.50
85378;DHT22;75782;48.632;10.230;2024-01-30T04:41:29;0.40;64.60
85378;DHT22;75782;48.632;10.230;2024-01-30T04:43:56;0.40;65.60
85378;DHT22;75782;48.632;10.230;2024-01-30T04:46:23;0.40;64.80
85378;DHT22;75782;48.632;10.230;2024-01-30T04:48:50;0.40;64.80
85378;DHT22;75782;48.632;10.230;2024-01-30T04:51:17;0.40;64.80
85378;DHT22;75782;48.632;10.230;2024-01-30T04:53:43;0.40;64.60
85378;DHT22;75782;48.632;10.230;2024-01-30T04:56:11;0.40;64.20
85378;DHT22;75782;48.632;10.230;2024-01-30T04:58:38;0.30;63.90
85378;DHT22;75782;48.632;10.230;2024-01-30T05:01:05;0.30;64.00
85378;DHT22;75782;48.632;10.230;2024-01-30T05:03:33;0.30;64.00
85378;DHT22;75782;48.632;10.230;2024-01-30T05:05:59;0.30;64.20
85378;DHT22;75782;48.632;10.230;2024-01-30T05:08:25;0.30;64.20
85378;DHT22;75782;48.632;10.230;2024-01-30T05:10:52;0.30;64.10
85378;DHT22;75782;48.632;10.230;2024-01-30T05:13:18;0.30;64.30
85378;DHT22;75782;48.632;10.230;2024-01-30T05:15:45;0.20;64.60
85378;DHT22;75782;48.632;10.230;2024-01-30T05:18:12;0.20;64.70
85378;DHT22;75782;48.632;10.230;2024-01-30T05:20:38;0.20;64.60
85378;DHT22;75782;48.632;10.230;2024-01-30T05:23:05;0.20;64.60
85378;DHT22;75782;48.632;10.230;2024-01-30T05:25:31;0.20;64.60
85378;DHT22;75782;48.632;10.230;2024-01-30T05:27:58;0.20;64.80
85378;DHT22;75782;48.632;10.230;2024-01-30T05:30:25;0.20;65.50
85378;DHT22;75782;48.632;10.230;2024-01-30T05:32:51;0.20;65.60
85378;DHT22;75782;48.632;10.230;2024-01-30T05:35:18;0.20;65.30
85378;DHT22;75782;48.632;10.230;2024-01-30T05:37:44;0.20;65.10
85378;DHT22;75782;48.632;10.230;2024-01-30T05:40:11;0.20;65.70
85378;DHT22;75782;48.632;10.230;2024-01-30T05:42:38;0.20;65.00
85378;DHT22;75782;48.632;10.230;2024-01-30T05:45:05;0.20;64.80
85378;DHT22;75782;48.632;10.230;2024-01-30T05:47:31;0.20;64.70
85378;DHT22;75782;48.632;10.230;2024-01-30T05:49:58;0.20;64.00
85378;DHT22;75782;48.632;10.230;2024-01-30T05:52:25;0.20;64.10
85378;DHT22;75782;48.632;10.230;2024-01-30T05:54:51;0.20;64.20
85378;DHT22;75782;48.632;10.230;2024-01-30T05:57:18;0.20;64.40
85378;DHT22;75782;48.632;10.230;2024-01-30T05:59:44;0.10;64.10
85378;DHT22;75782;48.632;10.230;2024-01-30T06:02:11;0.10;64.20
85378;DHT22;75782;48.632;10.230;2024-01-30T06:04:38;0.10;64.50
85378;DHT22;75782;48.632;10.230;2024-01-30T06:07:04;0.10;64.40
85378;DHT22;75782;48.632;10.230;2024-01-30T06:09:31;0.10;64.30
85378;DHT22;75782;48.632;10.230;2024-01-30T06:11:57;0.10;64.40
85378;DHT22;75782;48.632;10.230;2024-01-30T06:14:24;0.00;64.60
85378;DHT22;75782;48.632;10.230;2024-01-30T06:16:51;0.10;66.10
85378;DHT22;75782;48.632;10.230;2024-01-30T06:19:19;0.10;65.70
85378;DHT22;75782;48.632;10.230;2024-01-30T06:21:45;0.10;65.70
85378;DHT22;75782;48.632;10.230;2024-01-30T06:24:12;0.10;65.70
85378;DHT22;75782;48.632;10.230;2024-01-30T06:26:39;0.10;65.80
85378;DHT22;75782;48.632;10.230;2024-01-30T06:29:06;0.10;65.60
85378;DHT22;75782;48.632;10.230;2024-01-30T06:31:33;0.00;65.50
85378;DHT22;75782;48.632;10.230;2024-01-30T06:33:59;0.10;65.30
85378;DHT22;75782;48.632;10.230;2024-01-30T06:36:26;0.10;65.10
85378;DHT22;75782;48.632;10.230;2024-01-30T06:38:53;0.10;65.00
85378;DHT22;75782;48.632;10.230;2024-01-30T06:41:20;0.00;64.90
85378;DHT22;75782;48.632;10.230;2024-01-30T06:43:47;0.10;65.30
85378;DHT22;75782;48.632;10.230;2024-01-30T06:46:14;0.00;64.60
85378;DHT22;75782;48.632;10.230;2024-01-30T06:48:40;0.00;64.30
85378;DHT22;75782;48.632;10.230;2024-01-30T06:51:07;0.00;64.30
85378;DHT22;75782;48.632;10.230;2024-01-30T06:53:34;0.10;64.10
85378;DHT22;75782;48.632;10.230;2024-01-30T06:56:01;0.10;64.80
85378;DHT22;75782;48.632;10.230;2024-01-30T06:58:28;0.10;64.00
85378;DHT22;75782;48.632;10.230;2024-01-30T07:00:55;0.00;64.00
85378;DHT22;75782;48.632;10.230;2024-01-30T07:03:22;0.10;64.30
85378;DHT22;75782;48.632;10.230;2024-01-30T07:05:50;0.10;64.00
85378;DHT22;75782;48.632;10.230;2024-01-30T07:08:16;0.10;64.00
85378;DHT22;75782;48.632;10.230;2024-01-30T07:10:44;0.20;63.40
85378;DHT22;75782;48.632;10.230;2024-01-30T07:13:11;0.20;63.90
85378;DHT22;75782;48.632;10.230;2024-01-30T07:15:38;0.20;63.80
85378;DHT22;75782;48.632;10.230;2024-01-30T07:18:05;0.30;63.90
85378;DHT22;75782;48.632;10.230;2024-01-30T07:20:31;0.30;63.70
85378;DHT22;75782;48.632;10.230;2024-01-30T07:22:58;0.40;63.40
85378;DHT22;75782;48.632;10.230;2024-01-30T07:25:24;0.50;63.30
85378;DHT22;75782;48.632;10.230;2024-01-30T07:27:53;0.60;63.40
85378;DHT22;75782;48.632;10.230;2024-01-30T07:30:19;0.80;63.10
85378;DHT22;75782;48.632;10.230;2024-01-30T07:32:46;1.10;62.40
85378;DHT22;75782;48.632;10.230;2024-01-30T07:35:13;1.20;62.10
85378;DHT22;75782;48.632;10.230;2024-01-30T07:37:39;1.50;61.80
85378;DHT22;75782;48.632;10.230;2024-01-30T07:40:06;1.90;60.90
85378;DHT22;75782;48.632;10.230;2024-01-30T07:42:33;2.30;60.10
85378;DHT22;75782;48.632;10.230;2024-01-30T07:45:00;2.80;59.20
85378;DHT22;75782;48.632;10.230;2024-01-30T07:47:27;3.60;57.00
85378;DHT22;75782;48.632;10.230;2024-01-30T07:49:53;3.60;57.00
85378;DHT22;75782;48.632;10.230;2024-01-30T07:52:20;4.10;56.20
85378;DHT22;75782;48.632;10.230;2024-01-30T07:54:47;4.40;55.10
85378;DHT22;75782;48.632;10.230;2024-01-30T07:57:14;4.80;54.00
85378;DHT22;75782;48.632;10.230;2024-01-30T07:59:42;4.70;54.20
85378;DHT22;75782;48.632;10.230;2024-01-30T08:02:09;4.70;54.10
85378;DHT22;75782;48.632;10.230;2024-01-30T08:04:35;4.70;54.20
85378;DHT22;75782;48.632;10.230;2024-01-30T08:07:02;4.90;54.00
85378;DHT22;75782;48.632;10.230;2024-01-30T08:09:29;5.40;53.80
85378;DHT22;75782;48.632;10.230;2024-01-30T08:11:55;6.00;53.10
85378;DHT22;75782;48.632;10.230;2024-01-30T08:14:23;6.80;51.00
85378;DHT22;75782;48.632;10.230;2024-01-30T08:16:50;6.90;50.60
85378;DHT22;75782;48.632;10.230;2024-01-30T08:19:17;6.90;50.60
85378;DHT22;75782;48.632;10.230;2024-01-30T08:21:43;6.90;50.70
85378;DHT22;75782;48.632;10.230;2024-01-30T08:24:10;6.90;50.90
85378;DHT22;75782;48.632;10.230;2024-01-30T08:26:37;6.90;50.60
85378;DHT22;75782;48.632;10.230;2024-01-30T08:29:04;6.90;50.60
85378;DHT22;75782;48.632;10.230;2024-01-30T08:31:30;6.80;51.00
85378;DHT22;75782;48.632;10.230;2024-01-30T08:33:57;6.70;51.80
85378;DHT22;75782;48.632;10.230;2024-01-30T08:36:24;6.70;52.10
85378;DHT22;75782;48.632;10.230;2024-01-30T08:38:52;6.70;52.20
85378;DHT22;75782;48.632;10.230;2024-01-30T08:41:19;6.70;52.20
85378;DHT22;75782;48.632;10.230;2024-01-30T08:43:46;6.70;52.40
85378;DHT22;75782;48.632;10.230;2024-01-30T08:46:13;6.80;53.20
85378;DHT22;75782;48.632;10.230;2024-01-30T08:48:39;7.10;53.20
85378;DHT22;75782;48.632;10.230;2024-01-30T08:51:07;7.50;52.20
85378;DHT22;75782;48.632;10.230;2024-01-30T08:53:33;7.50;52.20
85378;DHT22;75782;48.632;10.230;2024-01-30T08:56:00;7.50;52.10
85378;DHT22;75782;48.632;10.230;2024-01-30T08:58:26;7.80;52.20
85378;DHT22;75782;48.632;10.230;2024-01-30T09:00:54;9.10;50.40
85378;DHT22;75782;48.632;10.230;2024-01-30T09:03:20;9.10;50.40
85378;DHT22;75782;48.632;10.230;2024-01-30T09:05:47;9.40;49.20
85378;DHT22;75782;48.632;10.230;2024-01-30T09:08:14;9.60;48.40
85378;DHT22;75782;48.632;10.230;2024-01-30T09:10:40;10.10;47.50
85378;DHT22;75782;48.632;10.230;2024-01-30T09:13:08;11.20;45.40
85378;DHT22;75782;48.632;10.230;2024-01-30T09:15:34;11.20;45.40
85378;DHT22;75782;48.632;10.230;2024-01-30T09:18:01;11.60;44.00
85378;DHT22;75782;48.632;10.230;2024-01-30T09:20:27;12.10;43.30
85378;DHT22;75782;48.632;10.230;2024-01-30T09:22:55;12.60;42.70
85378;DHT22;75782;48.632;10.230;2024-01-30T09:25:21;12.60;42.70
85378;DHT22;75782;48.632;10.230;2024-01-30T09:27:48;12.70;42.10
85378;DHT22;75782;48.632;10.230;2024-01-30T09:30:15;12.90;41.40
85378;DHT22;75782;48.632;10.230;2024-01-30T09:32:41;13.00;41.10
85378;DHT22;75782;48.632;10.230;2024-01-30T09:35:08;13.00;40.80
85378;DHT22;75782;48.632;10.230;2024-01-30T09:37:35;12.90;41.10
85378;DHT22;75782;48.632;10.230;2024-01-30T09:40:01;12.80;41.30
85378;DHT22;75782;48.632;10.230;2024-01-30T09:42:34;12.30;41.50
85378;DHT22;75782;48.632;10.230;2024-01-30T09:45:00;12.30;41.50
85378;DHT22;75782;48.632;10.230;2024-01-30T09:47:26;12.00;42.10
85378;DHT22;75782;48.632;10.230;2024-01-30T09:49:54;11.20;43.70
85378;DHT22;75782;48.632;10.230;2024-01-30T09:52:20;11.20;43.70
85378;DHT22;75782;48.632;10.230;2024-01-30T09:54:47;10.90;44.80
85378;DHT22;75782;48.632;10.230;2024-01-30T09:57:14;10.60;45.60
85378;DHT22;75782;48.632;10.230;2024-01-30T09:59:41;10.60;46.30
85378;DHT22;75782;48.632;10.230;2024-01-30T10:02:08;10.60;46.20
85378;DHT22;75782;48.632;10.230;2024-01-30T10:04:34;10.70;46.20
85378;DHT22;75782;48.632;10.230;2024-01-30T10:07:02;10.70;46.30
85378;DHT22;75782;48.632;10.230;2024-01-30T10:09:31;10.80;46.40
85378;DHT22;75782;48.632;10.230;2024-01-30T10:11:56;10.70;46.20
85378;DHT22;75782;48.632;10.230;2024-01-30T10:14:23;10.50;46.30
85378;DHT22;75782;48.632;10.230;2024-01-30T10:16:50;10.30;46.50
85378;DHT22;75782;48.632;10.230;2024-01-30T10:19:17;10.30;46.50
85378;DHT22;75782;48.632;10.230;2024-01-30T10:21:43;10.30;46.80
85378;DHT22;75782;48.632;10.230;2024-01-30T10:24:10;10.40;46.70
85378;DHT22;75782;48.632;10.230;2024-01-30T10:26:37;10.20;47.20
85378;DHT22;75782;48.632;10.230;2024-01-30T10:29:03;10.10;47.50
85378;DHT22;75782;48.632;10.230;2024-01-30T10:31:30;10.10;48.00
85378;DHT22;75782;48.632;10.230;2024-01-30T10:33:57;11.30;47.10
85378;DHT22;75782;48.632;10.230;2024-01-30T10:36:26;11.30;47.10
85378;DHT22;75782;48.632;10.230;2024-01-30T10:38:50;11.70;45.60
85378;DHT22;75782;48.632;10.230;2024-01-30T10:41:18;11.70;45.60
85378;DHT22;75782;48.632;10.230;2024-01-30T10:43:47;11.90;44.80
85378;DHT22;75782;48.632;10.230;2024-01-30T10:46:18;11.90;44.70
85378;DHT22;75782;48.632;10.230;2024-01-30T10:48:46;11.80;44.60
85378;DHT22;75782;48.632;10.230;2024-01-30T10:51:13;11.90;44.50
85378;DHT22;75782;48.632;10.230;2024-01-30T10:53:39;11.90;44.50
85378;DHT22;75782;48.632;10.230;2024-01-30T10:56:07;11.90;44.90
85378;DHT22;75782;48.632;10.230;2024-01-30T10:58:33;11.90;45.00
85378;DHT22;75782;48.632;10.230;2024-01-30T11:01:00;12.00;45.10
85378;DHT22;75782;48.632;10.230;2024-01-30T11:03:27;12.40;44.60
85378;DHT22;75782;48.632;10.230;2024-01-30T11:05:53;12.90;44.20
85378;DHT22;75782;48.632;10.230;2024-01-30T11:08:24;13.00;43.70
85378;DHT22;75782;48.632;10.230;2024-01-30T11:10:55;13.10;43.80
85378;DHT22;75782;48.632;10.230;2024-01-30T11:13:18;13.10;43.80
85378;DHT22;75782;48.632;10.230;2024-01-30T11:15:44;13.10;43.50
85378;DHT22;75782;48.632;10.230;2024-01-30T11:18:11;13.10;43.10
85378;DHT22;75782;48.632;10.230;2024-01-30T11:20:38;13.10;43.50
85378;DHT22;75782;48.632;10.230;2024-01-30T11:23:05;13.10;43.50
85378;DHT22;75782;48.632;10.230;2024-01-30T11:25:33;13.10;44.10
85378;DHT22;75782;48.632;10.230;2024-01-30T11:28:00;13.10;44.10
85378;DHT22;75782;48.632;10.230;2024-01-30T11:30:29;13.10;43.70
85378;DHT22;75782;48.632;10.230;2024-01-30T11:33:08;13.10;43.40
85378;DHT22;75782;48.632;10.230;2024-01-30T11:35:36;13.00;43.70
85378;DHT22;75782;48.632;10.230;2024-01-30T11:38:03;12.80;44.00
85378;DHT22;75782;48.632;10.230;2024-01-30T11:40:29;12.60;44.30
85378;DHT22;75782;48.632;10.230;2024-01-30T11:42:56;12.40;44.40
85378;DHT22;75782;48.632;10.230;2024-01-30T11:45:22;12.20;45.00
85378;DHT22;75782;48.632;10.230;2024-01-30T11:47:49;12.00;45.80
85378;DHT22;75782;48.632;10.230;2024-01-30T11:50:15;11.80;46.20
85378;DHT22;75782;48.632;10.230;2024-01-30T11:52:43;11.50;46.70
85378;DHT22;75782;48.632;10.230;2024-01-30T11:55:09;11.50;46.70
85378;DHT22;75782;48.632;10.230;2024-01-30T11:57:36;11.40;47.20
85378;DHT22;75782;48.632;10.230;2024-01-30T12:00:03;11.30;47.70
85378;DHT22;75782;48.632;10.230;2024-01-30T12:02:30;11.20;47.90
85378;DHT22;75782;48.632;10.230;2024-01-30T12:04:58;11.00;49.20
85378;DHT22;75782;48.632;10.230;2024-01-30T12:07:24;11.00;48.70
85378;DHT22;75782;48.632;10.230;2024-01-30T12:09:52;10.90;48.90
85378;DHT22;75782;48.632;10.230;2024-01-30T12:12:18;10.80;49.10
85378;DHT22;75782;48.632;10.230;2024-01-30T12:14:45;10.80;50.00
85378;DHT22;75782;48.632;10.230;2024-01-30T12:17:22;10.70;50.00
85378;DHT22;75782;48.632;10.230;2024-01-30T12:19:38;10.60;49.90
85378;DHT22;75782;48.632;10.230;2024-01-30T12:22:05;10.60;50.30
85378;DHT22;75782;48.632;10.230;2024-01-30T12:24:31;10.50;50.20
85378;DHT22;75782;48.632;10.230;2024-01-30T12:26:58;10.50;50.60
85378;DHT22;75782;48.632;10.230;2024-01-30T12:29:25;10.50;50.20
85378;DHT22;75782;48.632;10.230;2024-01-30T12:31:53;10.50;50.00
85378;DHT22;75782;48.632;10.230;2024-01-30T12:34:20;10.60;50.90
85378;DHT22;75782;48.632;10.230;2024-01-30T12:36:47;10.60;50.90
85378;DHT22;75782;48.632;10.230;2024-01-30T12:39:14;10.60;51.20
85378;DHT22;75782;48.632;10.230;2024-01-30T12:41:40;10.60;50.70
85378;DHT22;75782;48.632;10.230;2024-01-30T12:44:07;10.60;50.90
85378;DHT22;75782;48.632;10.230;2024-01-30T12:46:34;10.70;51.50
85378;DHT22;75782;48.632;10.230;2024-01-30T12:49:01;10.60;51.40
85378;DHT22;75782;48.632;10.230;2024-01-30T12:51:27;10.60;51.40
85378;DHT22;75782;48.632;10.230;2024-01-30T12:53:55;10.60;51.30
85378;DHT22;75782;48.632;10.230;2024-01-30T12:56:22;10.60;51.30
85378;DHT22;75782;48.632;10.230;2024-01-30T12:58:48;10.60;51.60
85378;DHT22;75782;48.632;10.230;2024-01-30T13:01:15;10.60;51.70
85378;DHT22;75782;48.632;10.230;2024-01-30T13:03:41;10.50;51.40
85378;DHT22;75782;48.632;10.230;2024-01-30T13:06:08;10.50;51.80
85378;DHT22;75782;48.632;10.230;2024-01-30T13:08:34;10.50;51.80
85378;DHT22;75782;48.632;10.230;2024-01-30T13:11:02;10.40;52.40
85378;DHT22;75782;48.632;10.230;2024-01-30T13:13:29;10.40;52.20
85378;DHT22;75782;48.632;10.230;2024-01-30T13:15:56;10.40;52.20
85378;DHT22;75782;48.632;10.230;2024-01-30T13:18:22;10.40;52.40
85378;DHT22;75782;48.632;10.230;2024-01-30T13:20:49;10.30;52.50
85378;DHT22;75782;48.632;10.230;2024-01-30T13:23:16;10.30;52.90
85378;DHT22;75782;48.632;10.230;2024-01-30T13:25:44;10.20;52.80
85378;DHT22;75782;48.632;10.230;2024-01-30T13:28:10;10.20;52.70
85378;DHT22;75782;48.632;10.230;2024-01-30T13:30:37;10.20;52.90
85378;DHT22;75782;48.632;10.230;2024-01-30T13:33:04;10.20;53.30
85378;DHT22;75782;48.632;10.230;2024-01-30T13:35:30;10.20;53.10
85378;DHT22;75782;48.632;10.230;2024-01-30T13:37:57;10.20;53.30
85378;DHT22;75782;48.632;10.230;2024-01-30T13:40:24;10.10;53.40
85378;DHT22;75782;48.632;10.230;2024-01-30T13:42:50;10.10;53.40
85378;DHT22;75782;48.632;10.230;2024-01-30T13:45:17;10.10;53.30
85378;DHT22;75782;48.632;10.230;2024-01-30T13:47:43;10.20;53.60
85378;DHT22;75782;48.632;10.230;2024-01-30T13:50:10;10.20;53.60
85378;DHT22;75782;48.632;10.230;2024-01-30T13:52:37;10.20;53.70
85378;DHT22;75782;48.632;10.230;2024-01-30T13:55:04;10.20;53.70
85378;DHT22;75782;48.632;10.230;2024-01-30T13:57:31;10.20;53.80
85378;DHT22;75782;48.632;10.230;2024-01-30T13:59:57;10.20;54.10
85378;DHT22;75782;48.632;10.230;2024-01-30T14:02:24;10.20;54.10
85378;DHT22;75782;48.632;10.230;2024-01-30T14:04:50;10.20;54.30
85378;DHT22;75782;48.632;10.230;2024-01-30T14:07:17;10.20;54.00
85378;DHT22;75782;48.632;10.230;2024-01-30T14:09:45;10.10;54.00
85378;DHT22;75782;48.632;10.230;2024-01-30T14:12:12;10.10;54.50
85378;DHT22;75782;48.632;10.230;2024-01-30T14:14:40;10.10;54.50
85378;DHT22;75782;48.632;10.230;2024-01-30T14:17:06;10.10;54.50
85378;DHT22;75782;48.632;10.230;2024-01-30T14:19:34;10.10;54.90
85378;DHT22;75782;48.632;10.230;2024-01-30T14:22:01;10.10;54.70
85378;DHT22;75782;48.632;10.230;2024-01-30T14:24:27;10.10;54.70
85378;DHT22;75782;48.632;10.230;2024-01-30T14:26:54;10.00;54.80
85378;DHT22;75782;48.632;10.230;2024-01-30T14:29:21;10.00;54.80
85378;DHT22;75782;48.632;10.230;2024-01-30T14:31:48;10.00;55.10
85378;DHT22;75782;48.632;10.230;2024-01-30T14:34:15;10.00;55.10
85378;DHT22;75782;48.632;10.230;2024-01-30T14:36:42;9.90;56.00
85378;DHT22;75782;48.632;10.230;2024-01-30T14:39:09;9.90;56.00
85378;DHT22;75782;48.632;10.230;2024-01-30T14:41:35;9.90;56.40
85378;DHT22;75782;48.632;10.230;2024-01-30T14:44:02;9.80;56.40
85378;DHT22;75782;48.632;10.230;2024-01-30T14:46:28;9.80;56.50
85378;DHT22;75782;48.632;10.230;2024-01-30T14:48:55;9.80;56.80
85378;DHT22;75782;48.632;10.230;2024-01-30T14:51:22;9.70;57.80
85378;DHT22;75782;48.632;10.230;2024-01-30T14:53:49;9.70;57.80
85378;DHT22;75782;48.632;10.230;2024-01-30T14:56:16;9.60;58.00
85378;DHT22;75782;48.632;10.230;2024-01-30T14:58:42;9.50;58.10
85378;DHT22;75782;48.632;10.230;2024-01-30T15:01:09;9.50;58.40
85378;DHT22;75782;48.632;10.230;2024-01-30T15:03:36;9.40;59.00
85378;DHT22;75782;48.632;10.230;2024-01-30T15:06:03;9.30;58.90
85378;DHT22;75782;48.632;10.230;2024-01-30T15:08:30;9.30;59.20
85378;DHT22;75782;48.632;10.230;2024-01-30T15:10:56;9.20;59.30
85378;DHT22;75782;48.632;10.230;2024-01-30T15:13:24;9.10;59.60
85378;DHT22;75782;48.632;10.230;2024-01-30T15:15:50;9.10;59.60
85378;DHT22;75782;48.632;10.230;2024-01-30T15:18:17;9.10;59.90
85378;DHT22;75782;48.632;10.230;2024-01-30T15:20:43;9.00;60.10